x

9444090 - Port Angeles, Wa (ptaw1) Weather Station

11:36 - Sat 24th Sep 2016 All times are PDT. -7 hours from GMT.

  • Wind
    2mph
  • Sea Temp 50°f
  • Air Temp 55°f
  • Sea Pressure 1029.4mb
  • 9444090 - Port Angeles, Wa
  • 9444090 - Port Angeles, Wa

More Historic Weather Station data

Upgrade to MSW Pro to gain access to the past 30 days of data for over 8000 Wavebouys and Weather Stations around the globe.

Join Pro

Comparision Forecast

View Surf forecast
   
sam. 09/24 11:36 2
mph
1029.4mb 50f 55f
11:30 1
mph
1029.5mb 50f 55f
11:24 1
mph
1029.5mb 50f 55f
11:18 2 3 mph 1029.3mb 50f 54f
11:12 2 3 mph 1029.4mb 50f 55f
11:06  -  2 mph 1029.4mb 50f 56f
11:00 1 2 mph 1029.4mb 50f 56f
10:36 1 2 mph 1029.3mb 50f 56f
10:30 1 2 mph 1029.2mb 50f 56f
10:24 2
mph
1029.2mb 50f 56f
10:18 2 3 mph 1029mb 50f 56f
10:12 3
mph
1029mb 50f 55f
10:06 2 3 mph 1028.8mb 50f 55f
10:00 3 5 mph 1028.5mb 50f 55f
9:36 2 3 mph 1028.6mb 50f 54f
9:30 2 3 mph 1028.6mb 50f 53f
9:24 2 3 mph 1028.7mb 50f 53f
9:18 2 3 mph 1028.5mb 50f 53f
9:12 2 3 mph 1028.4mb 50f 53f
9:06  -  1 mph 1028.4mb 50f 53f
9:00 1
mph
1028.4mb 50f 53f
8:36 2
mph
1028.4mb 50f 54f
8:30 2
mph
1028.2mb 50f 54f
8:24 2 3 mph 1028.2mb 50f 54f
8:18 1 2 mph 1028.1mb 50f 55f
8:12  -  mph 1027.9mb 50f 55f
8:06  -  1 mph 1027.8mb 50f 55f
8:00  -  1 mph 1027.7mb 50f 55f
7:36  -  1 mph 1027.5mb 50f 55f
7:30 1 2 mph 1027.3mb 50f 54f
7:24 1 2 mph 1027.4mb 50f 54f
7:18  -  1 mph 1027.6mb 50f 54f
7:12 1
mph
1027.4mb 50f 54f
7:06 2
mph
1027.4mb 50f 54f
7:00  -  1 mph 1027.2mb 50f 54f
6:36 2 3 mph 1027.1mb 50f 55f
6:30  -  1 mph 1027.2mb 50f 55f
6:24  -  1 mph 1027.3mb 50f 55f
6:18  -  1 mph 1027.4mb 50f 55f
6:12  -  2 mph 1027.4mb 50f 54f
6:06  -  2 mph 1027.3mb 50f 55f
6:00 1 2 mph 1027.3mb 50f 55f
5:36 3 5 mph 1027.5mb 50f 55f
5:30 2
mph
1027.6mb 50f 55f
5:24 2
mph
1027.7mb 50f 55f
5:18  -  2 mph 1027.7mb 50f 55f
5:12  -  1 mph 1027.6mb 50f 55f
5:06 2 3 mph 1027.7mb 51f 55f
5:00  -  2 mph 1027.8mb 51f 55f
4:36 2 3 mph 1027.5mb 51f 55f
4:30 2
mph
1027.5mb 51f 55f
4:24 1 3 mph 1027.6mb 51f 56f
4:18 3
mph
1027.6mb 51f 58f
4:12 3
mph
1027.7mb 51f 57f
4:06 2 3 mph 1027.8mb 51f 56f
4:00 3
mph
1027.8mb 51f 56f
3:36 1 2 mph 1027.7mb 51f 56f
3:30 1 2 mph 1027.7mb 50f 56f
3:24  -  2 mph 1027.8mb 50f 55f
3:18 1 2 mph 1027.8mb 50f 55f
3:12 2
mph
1028mb 50f 55f
3:06 2
mph
1028mb 50f 56f
3:00 2
mph
1027.9mb 50f 56f
2:36 1 3 mph 1028mb 50f 57f
2:30 2 3 mph 1028.2mb 50f 56f
2:24 2 3 mph 1028mb 50f 55f
2:18 2 6 mph 1028.1mb 50f 55f
2:12 3 6 mph 1027.9mb 50f 55f
2:06 6
mph
1027.9mb 50f 55f
2:00 5 6 mph 1028.1mb 50f 55f
1:36 1 3 mph 1028.8mb 50f 59f
1:30 3
mph
1028.8mb 50f 58f
1:24 2 3 mph 1028.9mb 50f 56f
1:18 3 5 mph 1029mb 50f 55f
1:12 3 5 mph 1028.9mb 50f 55f
1:06 3 5 mph 1028.8mb 50f 56f
1:00 2 3 mph 1029.1mb 50f 55f
12:36 2 3 mph 1029.1mb 50f 55f
12:30 3
mph
1029.1mb 50f 55f
12:24 2 3 mph 1029mb 50f 56f
12:18 2 3 mph 1029.3mb 50f 56f
12:12 2
mph
1029.3mb 50f 55f
12:06  -  2 mph 1029.3mb 50f 55f
12:00 2
mph
1029.3mb 50f 55f
11:36 2
mph
1029.3mb 50f 56f
11:30 1 2 mph 1029.4mb 50f 54f
11:24 2 3 mph 1029.5mb 50f 54f
11:18 3
mph
1029.5mb 50f 53f
11:12 2
mph
1029.2mb 50f 53f
11:06 2
mph
1029mb 50f 53f
11:00 2 3 mph 1029.2mb 50f 53f
10:36 1 2 mph 1028.9mb 50f 53f
10:30 2
mph
1028.9mb 50f 53f
10:24 2 5 mph 1028.8mb 50f 52f
10:18 3 5 mph 1028.8mb 50f 52f
10:12 3 6 mph 1028.5mb 50f 52f
10:06 6
mph
1028.5mb 50f 52f
10:00 3 6 mph 1028.5mb 50f 52f
9:36 3
mph
1028.2mb 50f 53f
9:30 1 2 mph 1028.1mb 50f 54f
9:24 1 3 mph 1027.8mb 50f 55f
9:18 2
mph
1027.8mb 50f 53f
9:12 2 3 mph 1027.6mb 50f 53f
9:06 1 2 mph 1027.6mb 50f 53f
9:00  -  1 mph 1027.5mb 50f 52f
8:36 1 2 mph 1027.4mb 50f 51f
8:30 2 3 mph 1027.4mb 50f 51f
8:24 2
mph
1027.6mb 50f 51f
8:18 1 2 mph 1027.6mb 50f 51f
8:12 1 2 mph 1027.6mb 50f 50f
8:06 2 3 mph 1027.5mb 50f 50f
8:00 1 3 mph 1027.6mb 50f 50f
7:36 3 6 mph 1027.3mb 50f 49f
7:30 2 6 mph 1027.1mb 50f 49f
7:24 6 7 mph 1027.1mb 50f 49f
7:18 7 9 mph 1027mb 50f 49f
7:12 5 8 mph 1026.9mb 50f 49f
7:06 7 8 mph 1026.8mb 50f 48f
7:00 6 8 mph 1026.8mb 50f 48f
6:36 6
mph
1026.7mb 50f 48f
6:30 3 6 mph 1026.6mb 50f 48f
6:24 2 5 mph 1026.4mb 50f 48f
6:18 3 5 mph 1026.3mb 50f 48f
6:12 3 5 mph 1026.5mb 50f 49f
6:06 5 7 mph 1026.4mb 50f 49f
6:00 6 7 mph 1026.4mb 50f 49f
5:36 2 5 mph 1026mb 50f 49f
5:30 5
mph
1025.9mb 50f 49f
5:24 3 5 mph 1026mb 50f 49f
5:18 5
mph
1025.9mb 50f 49f
5:12 3 5 mph 1025.7mb 50f 49f
5:06 2 5 mph 1025.5mb 50f 49f
5:00 3 6 mph 1025.5mb 50f 49f
4:36 6
mph
1025.4mb 50f 49f
4:30 5 6 mph 1025.5mb 50f 49f
4:24 6 7 mph 1025.3mb 50f 49f
4:18 3 5 mph 1025.1mb 50f 49f
4:12 3 6 mph 1025mb 50f 49f
4:06 5 6 mph 1025.1mb 50f 50f
4:00 3 6 mph 1025.1mb 50f 51f
3:36 6 8 mph 1025mb 50f 50f
3:30 6 7 mph 1025mb 50f 50f
3:24 6 7 mph 1025.1mb 50f 50f
3:18 6 8 mph 1025.1mb 50f 50f
3:12 6 7 mph 1025.1mb 50f 50f
3:06 6
mph
1025mb 50f 50f
3:00 5 6 mph 1024.9mb 50f 50f
2:36 5 6 mph 1024.8mb 50f 51f
2:30 3 6 mph 1024.7mb 50f 51f
2:24 3 7 mph 1024.5mb 50f 52f
2:18 5 7 mph 1024.5mb 50f 52f
2:12 2 7 mph 1024.5mb 50f 53f
2:06 2 6 mph 1024.5mb 50f 53f
2:00 3 9 mph 1024.3mb 50f 54f
1:36 6 13 mph 1024mb 50f 54f
1:30 3 8 mph 1024mb 50f 54f
1:24 5 9 mph 1023.9mb 50f 54f
1:18 5 7 mph 1023.8mb 50f 54f
1:12 5 8 mph 1023.8mb 50f 54f
1:06 5 9 mph 1023.7mb 50f 53f
1:00 3 7 mph 1023.7mb 50f 53f
12:36 5 9 mph 1023.4mb 50f 54f
12:30 2 8 mph 1023.3mb 50f 54f
12:24 6 11 mph 1023.2mb 51f 54f
12:18 7 13 mph 1023.1mb 51f 54f
12:12 7 13 mph 1022.9mb 51f 54f
12:06 7 15 mph 1022.9mb 51f 54f
12:00 8 14 mph 1022.9mb 51f 53f
ven. 09/23 11:54 10 13 mph 1022.8mb 51f 53f
11:48 9 13 mph 1022.7mb 50f 53f
11:36 10 15 mph 1022.6mb 50f 54f
11:30 10 13 mph 1022.6mb 50f 53f
11:24 9 14 mph 1022.5mb 50f 53f
11:18 10 14 mph 1022.3mb 50f 53f
11:12 9 14 mph 1022.4mb 50f 53f
11:06 8 11 mph 1022.3mb 50f 53f
11:00 8 10 mph 1022.2mb 50f 53f
10:54 6 7 mph 1022.2mb 50f 53f
10:48 6 7 mph 1022.1mb 50f 54f
10:36 5 8 mph 1022mb 50f 54f
10:30 5 7 mph 1021.8mb 50f 54f
10:24 7 11 mph 1021.7mb 50f 54f
10:18 9 14 mph 1021.8mb 50f 54f
10:12 11 15 mph 1021.8mb 50f 54f
10:06 7 10 mph 1021.6mb 50f 54f
10:00 8 11 mph 1021.6mb 50f 54f
9:54 9 16 mph 1021.6mb 50f 55f
9:48 11 15 mph 1021.5mb 50f 55f
9:36 8 13 mph 1021.2mb 50f 55f
9:30 10 14 mph 1021.1mb 50f 55f
9:24 11 15 mph 1021.1mb 50f 55f
9:18 9 11 mph 1020.9mb 50f 55f
9:12 10 14 mph 1020.9mb 50f 55f
9:06 9 13 mph 1020.9mb 50f 55f
9:00 7 8 mph 1020.7mb 50f 55f
8:54 8 9 mph 1020.7mb 50f 54f
8:48 7 10 mph 1020.7mb 50f 54f
8:36 1 2 mph 1020.2mb 50f 55f
8:30  -  2 mph 1020mb 50f 55f
8:24 1 2 mph 1019.7mb 50f 55f
8:18  -  2 mph 1019.4mb 50f 55f
8:12  -  3 mph 1019.3mb 50f 55f
8:06 3
mph
1019.2mb 50f 55f
8:00 2 3 mph 1019.3mb 50f 55f
7:54 3 6 mph 1019.1mb 50f 55f
7:48 3 6 mph 1019mb 50f 55f
7:36 6 7 mph 1018.6mb 50f 54f
7:30 6 7 mph 1018.4mb 50f 53f
7:24 6 8 mph 1018.4mb 50f 53f
7:18 7 9 mph 1018.3mb 50f 53f
7:12 5 7 mph 1018.1mb 50f 53f
7:06 6 7 mph 1018.1mb 50f 54f
7:00 5 6 mph 1018mb 50f 54f
6:54 6 9 mph 1018.2mb 50f 54f
6:48 7 9 mph 1018mb 50f 54f
6:36 5 8 mph 1017.9mb 50f 57f
6:30 6 8 mph 1017.7mb 50f 56f
6:24 5 6 mph 1017.5mb 50f 56f
6:18 3 6 mph 1017.5mb 50f 56f
6:12 2 3 mph 1017.3mb 50f 55f
6:06  -  2 mph 1017.1mb 50f 55f
6:00 1 2 mph 1016.9mb 50f 55f
5:54 1 3 mph 1016.8mb 50f 56f
5:48 2 7 mph 1016.5mb 50f 57f
5:36 3 7 mph 1016.1mb 50f 57f
5:30 3 5 mph 1015.9mb 50f 56f
5:24 6 7 mph 1015.9mb 50f 56f
5:18 6 7 mph 1015.8mb 50f 56f
5:12 6 7 mph 1015.8mb 50f 57f
5:06 7 8 mph 1015.8mb 50f 57f
5:00 8 9 mph 1015.8mb 50f 57f
4:54 6 7 mph 1015.9mb 50f 57f
4:48 7 8 mph 1015.8mb 50f 58f
4:36 5 6 mph 1015.8mb 50f 60f
4:30 3 6 mph 1015.6mb 50f 60f
4:24 6 7 mph 1015.4mb 50f 63f
4:18 3 5 mph 1015.3mb 50f 63f
4:12  -  2 mph 1015.3mb 50f 60f
4:06 2 3 mph 1015.2mb 50f 59f
4:00 3 6 mph 1015.2mb 50f 58f
3:54 6 7 mph 1015.2mb 50f 58f
3:48 5 6 mph 1015.2mb 50f 58f
3:36 3 6 mph 1014.9mb 50f 57f
3:30 3 6 mph 1014.8mb 50f 57f
3:24 3 5 mph 1014.7mb 50f 58f
3:18 2 3 mph 1014.6mb 50f 58f
3:12 2 5 mph 1014.4mb 50f 58f
3:06 2 3 mph 1014.5mb 50f 58f
3:00 2 3 mph 1014.4mb 50f 60f
2:36 1 2 mph 1014.2mb 50f 61f
2:30 1 3 mph 1013.9mb 50f 63f
2:24 2 3 mph 1013.8mb 50f 61f
2:18 3
mph
1013.7mb 50f 63f
2:12 1 5 mph 1013.8mb 50f 60f
2:06 2
mph
1013.8mb 50f 61f
2:00 2 5 mph 1013.7mb 50f 61f
1:54 3
mph
1013.7mb 50f 62f
1:48 3 6 mph 1013.7mb 50f 60f
1:36 5 6 mph 1013.5mb 50f 60f
1:30 3
mph
1013.5mb 50f 58f
1:24 2 6 mph 1013.4mb 50f 57f
1:18 3 6 mph 1013.2mb 50f 57f
1:12 3 6 mph 1013.3mb 50f 57f
1:06 7 9 mph 1013.3mb 50f 56f
1:00 6 8 mph 1013.4mb 50f 56f
12:54 7 9 mph 1013.4mb 50f 56f
12:48 7 10 mph 1013.4mb 50f 56f
12:36 9 13 mph 1013.3mb 50f 56f
12:30 10 14 mph 1013.3mb 50f 55f
12:24 13 16 mph 1013.1mb 50f 55f
12:18 11 16 mph 1013mb 50f 55f
12:12 14 16 mph 1013mb 50f 55f
12:06 14 16 mph 1012.8mb 50f 54f
12:00 9 14 mph 1012.8mb 50f 55f
11:54 10 16 mph 1012.8mb 50f 54f
11:48 11 14 mph 1012.7mb 50f 54f
11:36 10 13 mph 1012.5mb 51f 54f
11:30 9 14 mph 1012.4mb 51f 54f
11:24 9 13 mph 1012.5mb 51f 54f
11:18 7 11 mph 1012.4mb 51f 54f
11:12 5 8 mph 1012.4mb 51f 54f
11:06 7 11 mph 1012.4mb 51f 54f
11:00 7 11 mph 1012.4mb 51f 54f
10:54 8 11 mph 1012.3mb 51f 54f
10:48 6 8 mph 1012.3mb 51f 54f
10:36 6 11 mph 1012.1mb 51f 53f
10:30 7 10 mph 1012mb 50f 53f
10:24 9 11 mph 1012.1mb 50f 53f
10:18 6 10 mph 1012mb 50f 53f
10:12 9 11 mph 1011.8mb 50f 53f
10:06 9 11 mph 1011.8mb 50f 53f
10:00 7 10 mph 1011.8mb 50f 53f
9:54 6 10 mph 1011.7mb 50f 53f
9:48 7 9 mph 1011.8mb 50f 53f
9:36 8 10 mph 1011.9mb 50f 52f
9:30 7 9 mph 1011.7mb 50f 53f
9:24 6 8 mph 1011.6mb 50f 53f
9:18 6 7 mph 1011.6mb 51f 53f
9:12 3 6 mph 1011.5mb 51f 53f
9:06 5 8 mph 1011.9mb 51f 53f
9:00 6 7 mph 1012.2mb 51f 53f
8:54 5 7 mph 1012.2mb 51f 52f
8:48 6 7 mph 1012.3mb 51f 52f
8:36 6 7 mph 1012.3mb 51f 52f
8:30 6 7 mph 1012.3mb 51f 52f
8:24 5 6 mph 1012.4mb 51f 53f
8:18 5 6 mph 1012.3mb 51f 53f
8:12 3 5 mph 1012.6mb 51f 53f
8:06 2 5 mph 1012.6mb 51f 52f
8:00 5
mph
1012.8mb 51f 52f
7:54 3
mph
1012.9mb 51f 53f
7:48 2 3 mph 1013.1mb 51f 53f
7:36  -  1 mph 1013.3mb 51f 53f
7:30  -  2 mph 1013.6mb 51f 53f
7:24 3 5 mph - - -
7:18 3 6 mph 1013.8mb 51f 54f
7:12 6 7 mph 1013.8mb 51f 53f
7:06 6 8 mph - - -
7:00 7 8 mph 1014.1mb 51f 54f
6:30  -  mph 1014.5mb 51f 54f
6:12  -  mph 1015.1mb 51f 54f
6:06  -  mph 1015.1mb 51f 54f
5:54  -  mph 1015.2mb 50f 54f
5:48  -  mph 1015.4mb 50f 54f
5:30  -  mph 1015.2mb 50f 53f
5:24  -  mph 1015.2mb 50f 53f
5:18  -  mph 1015.4mb 50f 53f
5:12  -  mph 1015.5mb 50f 53f
5:06  -  mph 1015.8mb 50f 54f
5:00  -  mph 1016.1mb 50f 54f
4:54  -  mph 1016.1mb 50f 54f
4:48  -  mph 1016.1mb 50f 54f
4:36 3 6 mph 1016.3mb 50f 54f
4:30 6 8 mph 1016.4mb 50f 54f
4:24 6
mph
1016.4mb 50f 54f
4:18 6 7 mph 1016.5mb 50f 54f
4:12 5 6 mph 1016.5mb 50f 55f
4:06 1 5 mph 1016.4mb 50f 55f
4:00 3 6 mph 1016.5mb 50f 55f
3:54 6 7 mph 1016.5mb 50f 55f
3:48 6 7 mph 1016.4mb 50f 55f
3:36 6 8 mph 1016.6mb 50f 55f
3:30 6 7 mph 1016.6mb 50f 55f
3:24 5 8 mph 1016.6mb 50f 55f
3:18 6 7 mph 1016.7mb 50f 55f
3:12 5 6 mph 1016.7mb 50f 55f
3:06 5 6 mph 1016.6mb 50f 55f
3:00 5 6 mph 1016.7mb 50f 55f
2:54 5 7 mph 1016.7mb 50f 55f
2:48 6 7 mph 1016.6mb 50f 54f
2:36 5 7 mph 1016.6mb 50f 54f
2:30 6
mph
1016.5mb 50f 54f
2:24 3 5 mph 1016.4mb 50f 54f
2:18 3 5 mph 1016.5mb 50f 54f
2:12 5 6 mph - - -
2:06 5 6 mph 1016.6mb 50f 54f
2:00 5 6 mph 1016.6mb 50f 54f
1:54 3 5 mph - - -
1:48 2 3 mph - - -
1:36  -  mph 1016.5mb 50f 54f
1:24  -  mph 1016.5mb 50f 54f
1:18  -  mph 1016.6mb 50f 54f
1:06  -  mph 1016.6mb 50f 54f
1:00  -  mph 1016.7mb 50f 54f
12:36  -  mph 1016.7mb 50f 54f
12:24  -  mph 1016.8mb 50f 54f
12:18  -  mph 1016.8mb 50f 54f
12:06  -  mph 1016.9mb 50f 54f
12:00  -  mph 1016.7mb 50f 54f
jeu. 09/22 11:36  -  mph 1017.2mb 50f 54f
11:24  -  mph 1016.7mb 50f 54f
11:18  -  mph 1016.8mb 50f 54f
11:12  -  mph 1016.8mb 50f 54f
11:06  -  mph 1016.6mb 50f 54f
11:00  -  mph 1016.7mb 50f 54f
10:54  -  mph 1016.5mb 50f 54f
10:48  -  mph 1016.4mb 50f 54f
10:36 6 7 mph 1016.5mb 50f 54f
10:30 5 7 mph 1016.5mb 50f 54f
10:24 6 8 mph 1016.5mb 50f 54f
10:18 7 10 mph 1016.4mb 50f 54f
10:12 7 10 mph 1016.4mb 50f 54f
10:06 6 10 mph 1016.7mb 50f 54f
10:00 7 11 mph 1016.9mb 49f 54f
9:36 6 9 mph 1017mb 49f 54f
9:30 6 10 mph 1017.1mb 50f 54f
9:24 6 9 mph 1017.1mb 50f 54f
9:18 8 11 mph 1017mb 49f 54f
9:12 6 9 mph 1017.1mb 50f 54f
9:06 5 10 mph 1017.2mb 50f 54f
9:00 6 10 mph 1017.2mb 50f 54f
8:54 5 11 mph 1017.2mb 50f 54f
8:48 6 8 mph 1017.3mb 50f 54f
8:36 5 8 mph 1017.3mb 50f 54f
8:30 6 9 mph 1017.3mb 50f 54f
8:24 5 6 mph 1017.4mb 50f 54f
8:18 3 8 mph 1017.3mb 50f 54f
8:12 5 9 mph 1017.3mb 50f 54f
8:06 6 8 mph - - -
8:00 5 8 mph 1017.3mb 50f 55f
7:54 3 9 mph - - -
7:48 6 11 mph - - -
7:36  -  mph 1017.4mb 50f 55f
7:24  -  mph 1017.4mb 50f 55f
7:18  -  mph 1017.3mb 50f 56f
7:00  -  mph 1017.3mb 50f 55f
6:36  -  mph 1017.1mb 50f 55f
6:24  -  mph 1017.2mb 50f 55f
6:18  -  mph 1017.4mb 50f 55f
6:00  -  mph 1017.3mb 50f 55f
5:54  -  mph 1017.4mb 50f 54f
5:36  -  mph 1017.4mb 51f 55f
5:24  -  mph 1017.3mb 51f 55f
5:18  -  mph 1017.3mb 51f 55f
5:06  -  mph 1017.1mb 51f 55f
5:00  -  mph 1017.1mb 51f 55f
4:54  -  mph 1017.1mb 51f 55f
4:48  -  mph 1017.1mb 51f 55f
4:36 15 20 mph 1017mb 51f 55f
4:30 15 21 mph 1017mb 51f 54f
4:24 15 23 mph 1017.1mb 51f 54f
4:18 17 22 mph 1017.1mb 51f 54f
4:12 16 21 mph 1017.1mb 51f 55f
4:06 14 16 mph 1017.2mb 51f 55f
4:00 14 16 mph 1017.2mb 50f 55f
3:54 14 20 mph 1017.3mb 50f 55f
3:48 16 20 mph 1017.3mb 50f 55f
3:36 15 18 mph 1017.3mb 50f 54f
3:30 16 20 mph 1017.3mb 50f 54f
3:24 15 18 mph 1017.2mb 50f 54f
3:18 7 8 mph 1016.9mb 50f 53f
3:12 5 6 mph 1016.9mb 50f 53f
3:06 6 8 mph 1016.9mb 50f 53f
3:00 9 10 mph 1017mb 50f 53f
2:54 7 10 mph 1017mb 50f 53f
2:48 11 14 mph 1017.1mb 50f 54f
2:36 13 15 mph 1017.3mb 50f 54f
2:30 13 16 mph 1017.4mb 50f 54f
2:24 14 17 mph 1017.4mb 50f 54f
2:18 14 20 mph 1017.5mb 49f 54f
2:12 14 20 mph 1017.6mb 49f 54f
2:06 18 23 mph 1017.6mb 49f 54f
2:00 18 26 mph 1017.7mb 49f 54f
1:54 23 30 mph 1017.7mb 49f 54f
1:48 20 28 mph 1017.7mb 50f 55f
1:36 23 29 mph 1017.6mb 50f 54f
1:30 22 26 mph 1017.6mb 50f 53f
1:24 18 24 mph 1017.6mb 50f 52f
1:18 18 25 mph 1017.5mb 50f 52f
1:12 17 23 mph 1017.4mb 50f 52f
1:06 16 21 mph 1017.3mb 51f 52f
1:00 13 16 mph 1017.1mb 51f 52f
12:36 13 15 mph 1017mb 51f 51f
12:30 14 16 mph 1017.1mb 51f 51f
12:24 14 15 mph 1017mb 51f 51f
12:18 13 15 mph 1017mb 51f 50f
12:12 13 15 mph 1017.1mb 51f 50f
12:06 14 15 mph 1017mb 50f 50f
12:00 13 15 mph 1017mb 50f 50f
11:54 11 14 mph 1017.1mb 50f 49f
11:48 13 14 mph 1017.1mb 50f 49f
11:36 9 13 mph 1017.1mb 50f 49f
11:30 10 13 mph 1017mb 50f 49f
11:24 10 11 mph 1017mb 50f 49f
11:18 8 10 mph 1017mb 50f 49f
11:12 6 8 mph 1017mb 50f 49f
11:06 6 9 mph 1016.9mb 50f 49f
11:00 6 10 mph 1017mb 50f 49f
10:54 7 13 mph 1017mb 50f 49f
10:48 10 11 mph 1017mb 50f 49f
10:36 13 14 mph 1017.1mb 49f 49f
10:30 13 16 mph 1017.1mb 49f 49f
10:24 13 15 mph 1017mb 49f 49f
10:18 14 16 mph 1016.9mb 49f 49f
10:12 11 14 mph 1016.9mb 50f 49f
10:06 11 14 mph 1016.9mb 50f 49f
10:00 13 14 mph 1016.9mb 50f 49f
9:54 9 11 mph 1016.9mb 50f 49f
9:48 8 10 mph 1016.9mb 50f 49f
9:36 13 14 mph 1016.8mb 50f 49f
9:30 11 15 mph 1016.8mb 50f 49f
9:24 14 15 mph 1016.8mb 50f 49f
9:18 11 14 mph 1016.7mb 50f 50f
9:12 10 13 mph 1016.7mb 50f 50f
9:06 11 15 mph 1016.7mb 50f 50f
9:00 13 16 mph 1016.7mb 50f 51f
8:54 10 11 mph 1016.7mb 50f 52f
8:48 9 11 mph 1016.6mb 50f 52f
8:36 7 9 mph 1016.6mb 50f 52f
8:30 7 8 mph 1016.5mb 50f 51f
8:24 3 5 mph 1016.5mb 50f 50f
8:18 3 5 mph 1016.5mb 50f 51f
8:12 5
mph
1016.3mb 50f 51f
8:06 2
mph
1016.3mb 50f 49f
8:00 1 2 mph 1016.1mb 50f 49f
7:54 3 5 mph 1016mb 50f 48f
7:48 3 5 mph 1016mb 50f 48f
7:36 3
mph
1016.1mb 50f 47f
7:30 3 5 mph 1016mb 50f 47f
7:24 3 5 mph 1015.9mb 50f 47f
7:18 5 6 mph 1015.8mb 50f 46f
7:12 3 5 mph 1015.8mb 50f 46f
7:06 5 6 mph 1015.8mb 50f 46f
7:00 5 6 mph 1015.8mb 50f 46f
6:54 5 7 mph 1015.8mb 50f 46f
6:36 6 7 mph 1015.6mb 50f 46f
6:30 6
mph
1015.6mb 50f 46f
6:24 5 6 mph 1015.6mb 50f 46f
6:18 5 6 mph 1015.5mb 50f 46f
6:12 5 6 mph 1015.5mb 50f 46f
6:06 2 5 mph 1015.4mb 50f 46f
6:00 3 5 mph 1015.3mb 50f 46f
5:36 3 5 mph 1015.2mb 50f 47f
5:30 2 5 mph 1015.1mb 50f 47f
5:24 3 6 mph 1015.1mb 50f 46f
5:18 3 5 mph 1015.1mb 50f 46f
5:12 2 5 mph 1015.1mb 50f 46f
5:06 3 5 mph 1015mb 50f 46f
5:00 3 5 mph 1015mb 50f 46f
4:54 3 5 mph 1015.1mb 50f 46f
4:48 3
mph
1015.2mb 50f 46f
4:36 3 5 mph 1015.3mb 50f 46f
4:30 3 5 mph 1015.2mb 50f 46f
4:24 3 6 mph 1015.2mb 50f 46f
4:18 3 6 mph 1015.2mb 50f 46f
4:12 5 6 mph 1015.2mb 50f 46f
4:06 2 3 mph 1015.2mb 51f 46f
4:00 2 3 mph 1015.1mb 51f 47f
3:54 2 3 mph 1015mb 51f 47f
3:48 5 7 mph 1014.9mb 51f 47f
3:36 6
mph
1015mb 51f 47f
3:30 6
mph
1014.9mb 51f 47f
3:24 3 5 mph 1014.9mb 51f 47f
3:18 3 6 mph 1014.8mb 51f 47f
3:12 6
mph
1014.8mb 51f 48f
3:06 5 6 mph 1014.8mb 51f 48f
3:00 3 5 mph 1014.8mb 51f 48f
2:54 5 7 mph 1014.7mb 51f 48f
2:48 3 6 mph 1014.7mb 51f 47f
2:36 5 6 mph 1014.7mb 51f 48f
2:30 3 6 mph 1014.6mb 51f 48f
2:24 3 5 mph 1014.5mb 51f 48f
2:18 3 5 mph 1014.4mb 51f 48f
2:12 2 3 mph 1014.4mb 51f 49f
2:06 1 3 mph 1014.4mb 51f 50f
2:00 2 3 mph 1014.3mb 51f 49f
1:54  -  6 mph 1014.3mb 51f 49f
1:48 1 3 mph 1014.2mb 51f 49f
1:36 2 6 mph 1014.1mb 51f 50f
1:30 5 6 mph 1014.2mb 51f 48f
1:24 1 2 mph 1014.2mb 51f 48f
1:18 3 6 mph 1014.1mb 51f 48f
1:12 7 8 mph 1014.2mb 51f 49f
1:06 8 9 mph 1014.2mb 51f 49f
1:00 6 8 mph 1014.2mb 51f 49f
12:54 2 3 mph 1014.4mb 51f 49f
12:48 3
mph
1014.3mb 51f 50f
12:36 5 7 mph 1014.4mb 51f 50f
12:30 3 6 mph 1014.4mb 51f 50f
12:24 5 6 mph 1014.5mb 51f 50f
12:18 5 6 mph 1014.5mb 51f 49f
12:12 5 6 mph 1014.5mb 51f 50f
12:06 3 6 mph 1014.5mb 51f 49f
12:00 3 6 mph 1014.5mb 51f 49f
mer. 09/21 11:54 2 3 mph 1014.6mb 50f 50f
11:48  -  1 mph 1014.6mb 50f 51f
11:36 2 6 mph 1014.6mb 51f 51f
11:30 2 5 mph 1014.6mb 51f 51f
11:24 5 8 mph 1014.6mb 50f 50f
11:18 3 6 mph 1014.6mb 51f 50f
11:12 5 9 mph 1014.6mb 51f 51f
11:06 7 8 mph 1014.6mb 51f 51f
11:00 5 6 mph 1014.7mb 51f 51f
10:54 5 6 mph 1014.7mb 51f 51f
10:48 3 6 mph 1014.8mb 51f 51f
10:36 2 3 mph 1014.7mb 51f 51f
10:30 2 5 mph 1014.7mb 51f 52f
10:24 2 3 mph 1014.6mb 51f 52f
10:18  -  2 mph 1014.7mb 51f 52f
10:12 2 5 mph 1014.7mb 51f 52f
10:06 5
mph
1014.6mb 51f 53f
10:00 3 5 mph 1014.6mb 51f 54f
9:54 3 5 mph 1014.6mb 51f 54f
9:48 3
mph
1014.7mb 51f 54f
9:36 5 7 mph 1014.8mb 51f 55f
9:30 6 7 mph 1014.9mb 51f 55f
9:24 5 6 mph 1014.9mb 51f 55f
9:18 5 7 mph 1015mb 51f 55f
9:12 5 7 mph 1015mb 50f 55f
9:06 3 6 mph 1015mb 50f 55f
9:00 5 6 mph 1015mb 50f 54f
8:54 6 7 mph 1015mb 49f 53f
8:48 5 6 mph 1014.9mb 49f 54f
8:36 2 6 mph 1015mb 49f 54f
8:30 5 6 mph 1014.9mb 50f 54f
8:24 1 3 mph 1014.9mb 50f 55f
8:18 3 7 mph 1014.9mb 50f 55f
8:12 5 6 mph 1015mb 50f 54f
8:06 1 3 mph 1014.9mb 49f 55f
8:00  -  3 mph 1014.9mb 49f 55f
7:54 2 5 mph 1014.9mb 49f 55f
7:48 3 5 mph 1015mb 49f 55f
7:36 1 3 mph 1015.1mb 50f 55f
7:30 5 6 mph 1015.1mb 50f 56f
7:24 6 8 mph 1015.1mb 50f 56f
7:18 8 10 mph 1015.1mb 50f 55f
7:12 8 9 mph 1015.1mb 50f 55f
7:06 7 10 mph 1015.1mb 50f -
7:00 10 13 mph 1015.2mb 50f -
6:54 10 14 mph 1015.2mb 50f -
6:48 11 13 mph 1015.2mb 50f -
6:36 9 15 mph 1015.2mb 50f -
6:30 10 14 mph 1015.2mb 50f -
6:24 14 16 mph 1015.3mb 50f -
6:18 13 15 mph 1015.3mb 50f -
6:12 13 14 mph 1015.3mb 50f -
6:06 9 11 mph 1015.3mb 50f -
6:00 9 13 mph 1015.4mb 50f -
5:54 8 9 mph 1015.5mb 49f -
5:48 7 8 mph 1015.5mb 49f -
5:36 3 7 mph 1015.6mb 49f -
5:30 8
mph
1015.7mb 49f -
5:24 6 9 mph 1015.8mb 49f -
5:18 5 8 mph 1015.9mb 49f -
5:12 3 7 mph 1015.9mb 49f 69f
5:06 6 8 mph 1016mb 49f 68f
5:00 5 7 mph 1016.1mb 49f 66f
4:54 3 5 mph 1016.2mb 49f 66f
4:48 2 3 mph 1016.4mb 49f 67f
4:36 2 3 mph 1016.5mb 50f 65f
4:30 2
mph
1016.5mb 50f 66f
4:24 2
mph
1016.6mb 50f 66f
4:18  -  1 mph 1016.7mb 50f 66f
4:12 1 2 mph 1016.7mb 50f 64f
4:06 1 3 mph 1016.8mb 50f 61f
4:00 2 7 mph 1016.8mb 50f 60f
3:54 2 7 mph 1016.9mb 50f 59f
3:48 2 3 mph 1016.9mb 50f 58f
3:36 1 6 mph 1017mb 50f 58f
3:30 3 5 mph 1017mb 50f 57f
3:24 3 6 mph 1017.1mb 50f 56f
3:18 2 5 mph 1017.1mb 50f 56f
3:12 3 5 mph 1017.2mb 49f 55f
3:06 5 7 mph 1017.2mb 49f 54f
3:00 5 8 mph 1017.3mb 49f 53f
2:54 6 9 mph 1017.3mb 49f 54f
2:48 3 7 mph 1017.4mb 49f 56f
2:36 5 6 mph 1017.5mb 49f 54f
2:30 5 8 mph 1017.6mb 49f 54f
2:24 6 7 mph 1017.6mb 49f 55f
2:18 6 8 mph 1017.7mb 49f 57f
2:12 2 5 mph 1017.7mb 49f 65f
2:06 2 5 mph 1017.8mb 49f 64f
2:00 3
mph
1017.9mb 49f 62f
1:36 3 5 mph 1018.1mb 49f 64f
1:30 3 5 mph 1018.2mb 49f 65f
1:24 3 5 mph 1018.2mb 49f 64f
1:18 2 5 mph 1018.3mb 49f 64f
1:12 3 5 mph 1018.3mb 49f 63f
1:06 5
mph
1018.4mb 49f 63f
1:00 5 6 mph 1018.4mb 49f 64f
12:54 5 6 mph 1018.5mb 49f 63f
12:48 6 7 mph 1018.6mb 49f 62f
12:36 6 7 mph 1018.7mb 49f 61f
12:30 6 8 mph 1018.8mb 49f 59f
12:24 7 8 mph 1018.9mb 49f 59f
12:18 6 8 mph 1018.9mb 49f 60f
12:12 6 8 mph 1018.9mb 49f 59f
12:06 6 7 mph 1019mb 49f 59f
12:00 7 8 mph 1019mb 49f 59f
11:54 6 8 mph 1019.1mb 49f 59f
11:48 7 8 mph 1019.2mb 49f 59f
11:36 7 8 mph 1019.3mb 49f 60f
11:30 6 7 mph 1019.3mb 49f 60f
11:24 6 7 mph 1019.3mb 49f 60f
11:18 6
mph
1019.4mb 49f 59f
11:12 5 6 mph 1019.4mb 50f 58f
11:06 5 6 mph 1019.4mb 50f 58f
11:00 5 6 mph 1019.4mb 50f 58f
10:54 5 6 mph 1019.4mb 50f 57f
10:48 5 6 mph 1019.4mb 50f 58f
10:36 2 5 mph 1019.5mb 50f 57f
10:30 2 5 mph 1019.5mb 50f 58f
10:24 3 5 mph 1019.4mb 50f 58f
10:18 2 3 mph 1019.4mb 50f 58f
10:12 2 3 mph 1019.4mb 50f 58f
10:06 3 5 mph 1019.4mb 50f 58f
10:00 2 3 mph 1019.4mb 50f 56f
9:54  -  2 mph 1019.4mb 50f 55f
9:48 2 3 mph 1019.4mb 50f 56f
9:36 1 2 mph 1019.4mb 50f 55f
9:30  -  2 mph 1019.4mb 50f 55f
9:24 1 2 mph 1019.4mb 50f 56f
9:18 1 2 mph 1019.4mb 50f 57f
9:12 2 5 mph 1019.4mb 50f 57f
9:06 3 5 mph 1019.4mb 50f 58f
9:00 1 2 mph 1019.4mb 50f 58f
8:54  -  mph 1019.4mb 50f 58f
8:48  -  1 mph 1019.5mb 50f 55f
8:36  -  2 mph 1019.6mb 50f 53f
8:30 2
mph
1019.6mb 50f 52f
8:24 2
mph
1019.7mb 50f 52f
8:18 3 5 mph 1019.7mb 50f 51f
8:12 5 6 mph 1019.7mb 50f 51f
8:06 2 3 mph 1019.7mb 50f 52f
8:00 1 2 mph 1019.7mb 50f 51f
7:54 2 3 mph 1019.7mb 51f 51f
7:48 2 3 mph 1019.8mb 51f 51f
7:36 5 6 mph 1019.8mb 51f 50f